Alanreed, Texas
Current Conditions -  °F | °C
As of 4:15 PM on Friday 31 Oct 2014 (Local Time) from KPPA Reporting Station
Clear Clear  
Wind Chill: 58°   Ceiling: Unl
Heat Index: 58°   Visibility: 10mi
Dew Point: 28°   Wind: 7mph
Humidity: 32%   Direction: 110°ESE
Pressure: 30.37"   Gusts: NA
Location:  35.21°N, 100.74°W
Report Text: KPPA 312115Z AUTO 11006KT 10SM CLR 14/M02 A3037 RMK AO2 T01441021 PNO
Loading
Personal Weather Stations






























Interactive Weather Map
Tropical Storm Tracking
New forecast layout! Learn more

10-Day Weather Forecast

Advertisements
Track Severe Weather on mobile